Time;durP1;ratioP1;P1;durP2;ratioP2;P2;SDS_P1;SDS_P2;PMS_P1;PMS_P2;Temp;Humidity;BMP_temperature;BMP_pressure;BME280_temperature;BME280_humidity;BME280_pressure;Samples;Min_cycle;Max_cycle;Signal;HPM_P1;HPM_P2
2022/06/02 00:02:00;;;;;;;17.35;10.15;;;;;;;10.91;100.00;101511.59;5045958;28;20136;-72
2022/06/02 00:04:48;;;;;;;17.45;9.90;;;;;;;10.87;100.00;101521.81;5077313;28;20049;-72
2022/06/02 00:07:24;;;;;;;18.88;10.05;;;;;;;10.88;100.00;101522.59;5078697;28;20453;-72
2022/06/02 00:09:59;;;;;;;22.00;9.45;;;;;;;10.90;100.00;101517.50;5071328;28;20052;-72
2022/06/02 00:12:34;;;;;;;17.30;8.30;;;;;;;10.95;100.00;101520.72;5077476;28;20127;-72
2022/06/02 00:15:26;;;;;;;21.60;9.52;;;;;;;10.94;100.00;101518.31;5077468;28;20309;-72
2022/06/02 00:17:56;;;;;;;19.35;11.45;;;;;;;10.92;100.00;101524.25;5080673;28;20044;-73
2022/06/02 00:20:47;;;;;;;17.05;8.88;;;;;;;10.90;100.00;101525.81;5077026;28;20048;-72
2022/06/02 00:23:17;;;;;;;21.70;8.75;;;;;;;10.85;100.00;101529.72;5064326;28;20048;-72
2022/06/02 00:25:49;;;;;;;16.48;8.82;;;;;;;10.82;100.00;101530.47;5080660;28;20048;-71
2022/06/02 00:28:46;;;;;;;16.15;8.75;;;;;;;10.82;100.00;101524.94;5067005;28;20045;-73
2022/06/02 00:31:46;;;;;;;18.85;8.65;;;;;;;10.83;100.00;101523.75;5068678;28;20420;-71
2022/06/02 00:34:22;;;;;;;15.60;8.07;;;;;;;10.85;100.00;101528.91;5076714;28;20048;-72
2022/06/02 00:37:23;;;;;;;15.82;8.40;;;;;;;10.82;100.00;101530.47;5075622;28;20036;-71
2022/06/02 00:39:52;;;;;;;15.90;8.25;;;;;;;10.82;100.00;101524.13;5038143;28;20048;-72
2022/06/02 00:42:54;;;;;;;15.90;8.30;;;;;;;10.78;100.00;101526.88;5065110;28;20564;-72
2022/06/02 00:45:22;;;;;;;15.25;8.43;;;;;;;10.77;100.00;101532.78;5028322;28;20058;-72
2022/06/02 00:48:14;;;;;;;16.55;8.13;;;;;;;10.73;100.00;101535.50;5086029;28;20095;-72
2022/06/02 00:51:03;;;;;;;17.20;9.23;;;;;;;10.73;100.00;101526.41;5079619;28;20505;-73
2022/06/02 01:00:11;;;;;;;16.65;8.30;;;;;;;10.59;100.00;101529.81;5080268;28;20075;-72
2022/06/02 01:03:09;;;;;;;16.40;8.80;;;;;;;10.56;100.00;101535.31;5082856;28;20126;-72
2022/06/02 01:05:59;;;;;;;18.05;8.77;;;;;;;10.57;100.00;101536.91;5073643;28;20044;-73
2022/06/02 01:08:56;;;;;;;15.93;8.05;;;;;;;10.52;100.00;101542.78;5071445;28;20062;-72
2022/06/02 01:11:47;;;;;;;16.05;8.43;;;;;;;10.50;100.00;101540.38;5065636;28;20576;-71
2022/06/02 01:14:32;;;;;;;16.40;8.90;;;;;;;10.45;100.00;101540.69;5089746;28;20135;-72
2022/06/02 01:17:15;;;;;;;16.95;8.18;;;;;;;10.37;100.00;101542.56;5086252;28;20044;-72
2022/06/02 01:19:50;;;;;;;14.75;7.72;;;;;;;10.34;100.00;101554.41;5077690;28;20044;-73
2022/06/02 01:22:22;;;;;;;16.80;8.25;;;;;;;10.24;100.00;101546.78;5078010;28;20427;-72
2022/06/02 01:24:52;;;;;;;16.83;8.50;;;;;;;10.19;100.00;101543.50;5076345;28;20058;-73
2022/06/02 01:27:32;;;;;;;15.20;7.95;;;;;;;10.18;100.00;101553.81;5084677;28;20058;-72
2022/06/02 01:30:08;;;;;;;14.57;7.78;;;;;;;10.17;100.00;101557.72;5082794;28;20599;-72
2022/06/02 01:32:50;;;;;;;17.30;9.10;;;;;;;10.14;100.00;101547.44;5079391;28;20066;-71
2022/06/02 01:35:27;;;;;;;18.70;9.63;;;;;;;10.09;100.00;101558.81;5077852;28;20477;-72
2022/06/02 01:38:05;;;;;;;16.17;8.48;;;;;;;9.87;100.00;101545.81;5069497;28;20045;-71
2022/06/02 01:40:42;;;;;;;17.15;8.32;;;;;;;9.77;100.00;101553.94;5069055;28;20135;-70
2022/06/02 01:43:15;;;;;;;16.38;8.52;;;;;;;9.70;100.00;101557.41;5068861;28;20057;-73
2022/06/02 01:46:01;;;;;;;15.52;8.30;;;;;;;9.68;100.00;101556.97;5081871;28;20492;-72
2022/06/02 01:48:50;;;;;;;18.40;9.38;;;;;;;9.69;100.00;101564.09;5081262;28;20051;-72
2022/06/02 01:51:29;;;;;;;15.05;8.38;;;;;;;9.64;100.00;101561.66;5074278;28;20680;-71
2022/06/02 01:54:08;;;;;;;15.73;8.35;;;;;;;9.58;100.00;101559.53;5077919;28;20046;-72
2022/06/02 01:56:56;;;;;;;19.20;9.23;;;;;;;9.64;100.00;101571.88;5085844;28;20127;-73
2022/06/02 01:59:35;;;;;;;20.27;11.68;;;;;;;9.67;100.00;101563.66;5076287;28;20139;-72
2022/06/02 02:02:07;;;;;;;19.25;9.48;;;;;;;9.67;100.00;101565.63;5077966;28;20040;-71
2022/06/02 02:04:52;;;;;;;18.13;10.32;;;;;;;9.66;100.00;101564.03;5075572;28;20063;-72
2022/06/02 02:07:54;;;;;;;16.97;9.50;;;;;;;9.61;100.00;101559.63;5081902;28;20134;-73
2022/06/02 02:10:57;;;;;;;18.23;9.18;;;;;;;9.64;100.00;101567.16;5068363;28;20378;-71
2022/06/02 02:14:01;;;;;;;19.88;9.32;;;;;;;9.64;100.00;101571.88;5039324;28;20044;-72
2022/06/02 02:16:41;;;;;;;16.42;8.75;;;;;;;9.64;100.00;101567.16;5072121;28;20070;-72
2022/06/02 02:19:50;;;;;;;18.30;9.52;;;;;;;9.62;100.00;101565.97;5071194;28;20051;-72
2022/06/02 02:22:38;;;;;;;17.58;9.20;;;;;;;9.61;100.00;101567.09;5074604;28;20064;-72
2022/06/02 02:25:34;;;;;;;17.95;9.30;;;;;;;9.58;100.00;101570.59;5078480;28;20085;-71
2022/06/02 02:28:19;;;;;;;18.65;10.10;;;;;;;9.56;100.00;101572.94;5076751;28;20123;-71
2022/06/02 02:30:45;;;;;;;17.83;9.55;;;;;;;9.57;100.00;101577.31;5081884;28;20758;-72
2022/06/02 02:33:37;;;;;;;18.35;9.90;;;;;;;9.56;100.00;101572.94;5066188;28;20052;-71
2022/06/02 02:36:13;;;;;;;18.73;9.55;;;;;;;9.51;100.00;101578.78;5074299;28;20639;-72
2022/06/02 02:38:45;;;;;;;18.90;9.27;;;;;;;9.48;100.00;101573.97;5081682;28;20101;-73
2022/06/02 02:41:22;;;;;;;17.60;9.68;;;;;;;9.43;100.00;101575.13;5080459;28;20089;-72
2022/06/02 02:44:34;;;;;;;21.73;9.68;;;;;;;9.42;100.00;101565.22;5074918;28;20517;-72
2022/06/02 02:47:10;;;;;;;16.83;8.93;;;;;;;9.38;100.00;101569.88;5078151;28;20058;-72
2022/06/02 02:49:49;;;;;;;;;;;;;;;9.31;100.00;101566.19;5068504;28;20048;-72
2022/06/02 02:52:51;;;;;;;16.70;8.77;;;;;;;9.28;100.00;101564.19;5080341;28;19934;-72
2022/06/02 02:55:41;;;;;;;16.77;9.35;;;;;;;9.26;100.00;101567.31;5073155;28;20254;-72
2022/06/02 02:58:22;;;;;;;18.17;9.55;;;;;;;9.22;100.00;101563.69;5079651;28;20044;-72
2022/06/02 03:00:59;;;;;;;17.17;9.15;;;;;;;9.16;100.00;101570.69;5078252;28;20054;-71
2022/06/02 03:03:34;;;;;;;16.95;9.40;;;;;;;9.14;100.00;101573.00;5081574;28;20052;-71
2022/06/02 03:06:21;;;;;;;18.40;8.90;;;;;;;9.13;100.00;101584.41;5078036;28;20158;-71
2022/06/02 03:09:09;;;;;;;16.35;8.90;;;;;;;9.12;100.00;101578.13;5075639;28;20041;-71
2022/06/02 03:11:57;;;;;;;17.77;9.32;;;;;;;9.12;100.00;101580.06;5072059;28;20127;-71
2022/06/02 03:14:59;;;;;;;17.30;9.05;;;;;;;9.12;100.00;101580.88;5074179;28;20170;-72
2022/06/02 03:17:33;;;;;;;16.25;8.82;;;;;;;9.11;100.00;101589.53;5016353;28;20045;-72
2022/06/02 03:20:17;;;;;;;18.92;10.43;;;;;;;9.08;100.00;101587.50;5077359;28;20067;-72
2022/06/02 03:23:08;;;;;;;17.75;8.98;;;;;;;9.06;100.00;101598.91;5071230;28;20097;-71
2022/06/02 03:25:47;;;;;;;16.48;8.38;;;;;;;9.01;100.00;101596.41;5085220;28;20135;-72
2022/06/02 03:28:25;;;;;;;18.38;9.70;;;;;;;8.99;100.00;101607.03;5075838;28;20535;-72
2022/06/02 03:31:12;;;;;;;16.77;8.27;;;;;;;8.98;100.00;101613.72;5080841;28;20081;-72
2022/06/02 03:33:42;;;;;;;17.40;9.25;;;;;;;9.01;100.00;101617.72;5076678;28;20079;-74
2022/06/02 03:36:47;;;;;;;16.80;8.98;;;;;;;8.98;100.00;101607.41;5072935;28;20070;-72
2022/06/02 03:39:16;;;;;;;37.03;28.75;;;;;;;8.97;100.00;101616.84;5067116;28;20139;-72
2022/06/02 03:41:46;;;;;;;20.73;10.50;;;;;;;8.97;100.00;101611.31;5068409;28;20060;-72
2022/06/02 03:44:51;;;;;;;19.73;9.75;;;;;;;8.94;100.00;101612.06;5078986;28;20048;-71
2022/06/02 03:47:37;;;;;;;17.02;8.68;;;;;;;8.95;100.00;101619.97;5040229;28;20131;-72
2022/06/02 03:50:06;;;;;;;;;;;;;;;8.92;100.00;101629.00;5078776;28;20162;-74
2022/06/02 03:52:42;;;;;;;17.70;9.07;;;;;;;8.92;100.00;101626.22;5081221;28;19967;-72
2022/06/02 03:55:24;;;;;;;;;;;;;;;8.90;100.00;101628.53;5082507;28;20136;-71
2022/06/02 03:58:11;;;;;;;16.35;8.52;;;;;;;8.85;100.00;101628.84;5076050;28;19938;-72
2022/06/02 04:00:43;;;;;;;18.65;9.63;;;;;;;8.88;100.00;101632.84;5078547;28;20054;-71
2022/06/02 04:03:19;;;;;;;19.52;10.02;;;;;;;8.90;100.00;101634.06;5077735;28;20159;-72
2022/06/02 04:06:21;;;;;;;17.92;9.05;;;;;;;8.90;100.00;101628.53;5079021;28;20729;-71
2022/06/02 04:08:55;;;;;;;18.77;9.93;;;;;;;8.94;100.00;101640.44;5077966;28;20058;-72
2022/06/02 04:14:56;;;;;;;21.73;9.05;;;;;;;9.02;100.00;101641.41;5020682;28;20307;-71
2022/06/02 04:17:40;;;;;;;23.35;10.43;;;;;;;9.05;100.00;101646.19;5069127;28;20047;-73
2022/06/02 04:20:36;;;;;;;18.92;9.35;;;;;;;9.08;100.00;101649.00;5072071;28;20048;-72
2022/06/02 04:23:09;;;;;;;16.73;9.15;;;;;;;9.12;100.00;101655.44;5072482;28;20545;-72
2022/06/02 04:25:35;;;;;;;18.73;9.27;;;;;;;9.15;100.00;101657.44;5082395;28;20131;-72
2022/06/02 04:28:02;;;;;;;18.35;9.32;;;;;;;9.21;100.00;101671.75;5072893;28;20142;-71
2022/06/02 04:30:44;;;;;;;19.38;9.60;;;;;;;9.26;100.00;101671.44;5082767;28;20054;-71
2022/06/02 04:33:30;;;;;;;20.17;9.60;;;;;;;9.29;100.00;101668.78;5070837;28;20051;-73
2022/06/02 04:36:33;;;;;;;21.98;8.93;;;;;;;9.36;100.00;101677.19;5076377;28;20056;-73
2022/06/02 04:39:26;;;;;;;21.10;9.73;;;;;;;9.46;100.00;101682.13;5075417;28;20139;-72
2022/06/02 04:42:11;;;;;;;21.27;11.07;;;;;;;9.51;100.00;101679.03;5065942;28;20501;-72
2022/06/02 04:45:06;;;;;;;20.52;9.73;;;;;;;9.57;100.00;101682.28;5074857;28;20048;-74
2022/06/02 04:47:45;;;;;;;20.67;10.77;;;;;;;9.65;100.00;101693.09;5078759;28;20052;-71
2022/06/02 04:50:54;;;;;;;20.15;10.65;;;;;;;9.72;100.00;101693.22;5082796;28;20416;-74
2022/06/02 04:53:25;;;;;;;19.40;10.30;;;;;;;9.78;100.00;101685.44;5079656;28;20476;-72
2022/06/02 04:56:16;;;;;;;23.13;10.60;;;;;;;9.87;100.00;101700.63;5080917;28;20080;-72
2022/06/02 04:58:58;;;;;;;20.70;11.95;;;;;;;9.97;100.00;101700.00;5079109;28;20037;-73
2022/06/02 05:01:59;;;;;;;24.15;11.68;;;;;;;10.09;100.00;101704.56;5081418;28;20052;-72
2022/06/02 05:04:31;;;;;;;29.02;14.43;;;;;;;10.17;100.00;101706.28;5079731;28;20155;-72
2022/06/02 05:07:25;;;;;;;25.35;13.75;;;;;;;10.20;100.00;101706.31;5081428;28;20051;-74
2022/06/02 05:10:01;;;;;;;27.52;15.40;;;;;;;10.29;100.00;101712.41;5074450;28;20076;-74
2022/06/02 05:13:00;;;;;;;29.08;16.58;;;;;;;10.38;100.00;101712.94;5083042;28;20051;-75
2022/06/02 05:15:56;;;;;;;27.85;16.58;;;;;;;10.52;100.00;101709.59;5077196;28;20044;-74
2022/06/02 05:18:35;;;;;;;28.65;15.93;;;;;;;10.62;100.00;101711.72;5081414;28;20048;-76
2022/06/02 05:21:31;;;;;;;28.27;16.70;;;;;;;10.75;100.00;101712.28;5073946;28;20082;-73
2022/06/02 05:24:35;;;;;;;25.40;15.50;;;;;;;10.84;100.00;101712.81;5085596;28;20052;-74
2022/06/02 05:27:04;;;;;;;29.52;16.20;;;;;;;10.97;100.00;101720.50;5082211;28;20055;-73
2022/06/02 05:29:44;;;;;;;28.08;14.95;;;;;;;11.03;100.00;101716.22;5082474;28;20835;-73
2022/06/02 05:32:14;;;;;;;28.23;15.10;;;;;;;11.16;100.00;101720.34;5075048;28;20167;-74
2022/06/02 05:35:08;;;;;;;27.00;14.40;;;;;;;11.22;100.00;101718.03;5071535;28;20056;-75
2022/06/02 05:37:53;;;;;;;27.63;14.98;;;;;;;11.33;100.00;101722.53;5078094;28;20044;-74
2022/06/02 05:40:39;;;;;;;27.33;15.25;;;;;;;11.44;100.00;101725.44;5076956;28;20500;-74
2022/06/02 05:43:11;;;;;;;26.77;13.52;;;;;;;11.49;100.00;101719.56;5072538;28;20098;-74
2022/06/02 05:46:06;;;;;;;27.33;15.77;;;;;;;11.62;100.00;101729.22;5080451;28;20048;-73
2022/06/02 05:48:41;;;;;;;28.50;15.30;;;;;;;11.71;100.00;101735.28;5081572;28;20097;-73
2022/06/02 05:51:26;;;;;;;28.17;13.40;;;;;;;11.79;100.00;101736.94;5082730;28;20565;-71
2022/06/02 05:54:09;;;;;;;26.90;14.60;;;;;;;11.91;100.00;101731.13;5075397;28;20048;-71
2022/06/02 05:56:48;;;;;;;32.42;16.63;;;;;;;12.04;100.00;101729.63;5080014;28;20075;-71
2022/06/02 05:59:41;;;;;;;31.05;17.25;;;;;;;12.17;100.00;101733.72;5079800;28;20044;-72
2022/06/02 06:02:29;;;;;;;34.58;17.02;;;;;;;12.29;100.00;101727.88;5073396;28;20068;-70
2022/06/02 06:05:08;;;;;;;31.42;16.50;;;;;;;12.40;100.00;101726.78;5088038;28;20101;-71
2022/06/02 06:07:59;;;;;;;29.30;16.08;;;;;;;12.50;100.00;101728.03;5078038;28;20044;-69
2022/06/02 06:10:39;;;;;;;31.38;17.35;;;;;;;12.59;100.00;101725.72;5080265;28;20139;-71
2022/06/02 06:13:18;;;;;;;30.25;18.05;;;;;;;12.70;100.00;101729.38;5091994;28;20075;-70
2022/06/02 06:16:04;;;;;;;28.65;15.90;;;;;;;12.72;100.00;101730.56;5082651;28;20163;-71
2022/06/02 06:18:34;;;;;;;31.00;17.63;;;;;;;12.80;100.00;101734.19;5075545;28;20127;-70
2022/06/02 06:21:18;;;;;;;32.03;17.02;;;;;;;12.90;100.00;101739.00;5083119;28;20132;-70
2022/06/02 06:24:22;;;;;;;26.90;14.77;;;;;;;13.07;100.00;101738.34;5069232;28;20036;-70
2022/06/02 06:27:16;;;;;;;26.83;16.30;;;;;;;13.20;100.00;101736.81;5077738;28;20059;-71
2022/06/02 06:29:58;;;;;;;31.52;16.27;;;;;;;13.25;100.00;101730.88;5070861;28;20496;-70
2022/06/02 06:32:52;;;;;;;29.02;15.75;;;;;;;13.36;100.00;101734.47;5078916;28;20504;-71
2022/06/02 06:36:07;;;;;;;30.55;15.68;;;;;;;13.49;100.00;101738.50;5078685;28;20052;-72
2022/06/02 06:38:33;;;;;;;25.35;14.40;;;;;;;13.62;100.00;101734.16;4984077;28;20526;-71
2022/06/02 06:41:21;;;;;;;23.63;13.38;;;;;;;13.64;100.00;101744.91;5054655;28;20045;-69
2022/06/02 06:44:03;;;;;;;26.02;14.25;;;;;;;13.64;100.00;101744.91;5071643;28;20052;-72
2022/06/02 06:46:39;;;;;;;22.60;12.70;;;;;;;13.66;100.00;101748.06;5080860;28;20059;-72
2022/06/02 06:49:17;;;;;;;21.55;12.13;;;;;;;13.73;100.00;101748.88;5086672;28;20079;-70
2022/06/02 06:51:56;;;;;;;25.30;13.32;;;;;;;13.89;100.00;101743.78;5082929;28;20158;-70
2022/06/02 06:54:52;;;;;;;20.50;10.52;;;;;;;14.09;100.00;101758.91;5081246;28;20045;-71
2022/06/02 06:57:28;;;;;;;21.80;11.80;;;;;;;14.23;100.00;101760.91;5076393;28;20495;-73
2022/06/02 07:00:00;;;;;;;24.45;11.18;;;;;;;14.33;100.00;101752.59;5078278;28;20056;-71
2022/06/02 07:03:06;;;;;;;19.08;9.45;;;;;;;14.39;100.00;101753.78;5085467;28;20547;-71
2022/06/02 07:05:42;;;;;;;21.67;11.30;;;;;;;14.56;100.00;101754.94;5079977;28;20135;-71
2022/06/02 07:08:16;;;;;;;21.38;11.70;;;;;;;14.72;100.00;101764.47;5077575;28;20124;-72
2022/06/02 07:10:46;;;;;;;21.33;10.85;;;;;;;14.78;100.00;101764.88;5069627;28;20075;-69
2022/06/02 07:13:40;;;;;;;23.05;11.35;;;;;;;14.75;100.00;101760.13;5079163;28;20044;-76
2022/06/02 07:16:26;;;;;;;20.60;9.63;;;;;;;14.84;100.00;101766.84;5072711;28;20718;-71
2022/06/02 07:19:49;;;;;;;16.98;8.85;;;;;;;14.93;100.00;101764.44;5084352;28;20040;-72
2022/06/02 07:22:48;;;;;;;18.55;9.85;;;;;;;15.23;100.00;101763.97;5020626;28;20048;-72
2022/06/02 07:25:15;;;;;;;19.15;9.75;;;;;;;15.37;100.00;101764.75;5087363;28;20075;-72
2022/06/02 07:27:51;;;;;;;17.67;9.32;;;;;;;15.50;100.00;101756.72;5075345;28;20080;-71
2022/06/02 07:30:56;;;;;;;17.25;9.23;;;;;;;15.65;100.00;101768.59;5083625;28;20101;-71
2022/06/02 07:33:36;;;;;;;17.60;8.70;;;;;;;15.85;100.00;101772.44;5073670;28;20054;-71
2022/06/02 07:36:27;;;;;;;18.35;8.35;;;;;;;15.98;98.36;101779.94;5076586;28;20052;-71
2022/06/02 07:39:34;;;;;;;17.33;8.77;;;;;;;16.13;97.77;101778.63;5081094;28;20127;-72
2022/06/02 07:42:13;;;;;;;14.80;7.47;;;;;;;16.25;93.58;101775.38;5083536;28;20470;-72
2022/06/02 07:44:49;;;;;;;14.23;7.45;;;;;;;16.39;94.13;101782.84;5076011;28;20048;-72
2022/06/02 07:47:37;;;;;;;14.32;7.28;;;;;;;16.58;94.77;101785.91;5076750;28;20055;-72
2022/06/02 07:50:22;;;;;;;17.35;8.48;;;;;;;16.63;90.24;101782.66;5065536;28;20048;-72
2022/06/02 07:53:12;;;;;;;19.45;9.77;;;;;;;16.52;88.15;101789.53;5079375;28;20142;-73
2022/06/02 07:56:00;;;;;;;12.77;5.00;;;;;;;16.42;83.57;101791.22;5085678;28;20052;-74
2022/06/02 07:58:29;;;;;;;16.52;8.32;;;;;;;16.56;86.48;101795.88;5074124;28;20110;-72
2022/06/02 08:01:18;;;;;;;16.75;9.27;;;;;;;16.76;85.77;101791.31;5071378;28;20139;-74
2022/06/02 08:03:47;;;;;;;18.45;7.90;;;;;;;16.82;86.20;101798.06;5077895;28;20040;-74
2022/06/02 08:06:42;;;;;;;14.98;6.82;;;;;;;16.76;84.41;101800.50;5077418;28;20143;-73
2022/06/02 08:09:27;;;;;;;15.13;6.88;;;;;;;16.83;85.40;101799.63;5071396;28;20036;-75
2022/06/02 08:12:31;;;;;;;15.80;6.93;;;;;;;16.48;81.34;101799.97;5072425;28;20048;-71
2022/06/02 08:15:01;;;;;;;12.75;5.82;;;;;;;16.52;81.61;101803.50;5078094;28;20050;-71
2022/06/02 08:18:01;;;;;;;14.93;6.97;;;;;;;16.51;82.45;101804.72;5081732;28;20600;-74
2022/06/02 08:21:17;;;;;;;14.32;6.50;;;;;;;16.51;81.42;101799.16;5073278;28;20140;-73
2022/06/02 08:24:07;;;;;;;13.20;6.93;;;;;;;16.51;82.03;101799.16;5020070;28;20081;-73
2022/06/02 08:26:40;;;;;;;15.48;6.80;;;;;;;16.47;82.33;101796.38;5007258;28;20640;-72
2022/06/02 08:29:13;;;;;;;14.65;7.57;;;;;;;16.49;83.33;101801.53;5061630;28;20508;-72
2022/06/02 08:32:33;;;;;;;18.40;7.65;;;;;;;16.52;81.77;101801.53;5075785;28;20048;-74
2022/06/02 08:35:25;;;;;;;14.52;7.40;;;;;;;16.51;82.54;101804.72;4994052;28;20050;-73
2022/06/02 08:38:07;;;;;;;11.50;5.68;;;;;;;16.57;80.66;101805.88;5071922;28;20052;-72
2022/06/02 08:40:56;;;;;;;10.90;4.72;;;;;;;16.57;76.73;101809.44;5078364;28;20069;-73
2022/06/02 08:43:41;;;;;;;8.45;4.75;;;;;;;16.56;76.42;101807.88;5039626;28;21118;-72
2022/06/02 08:46:14;;;;;;;12.50;5.50;;;;;;;16.62;77.64;101808.22;5091821;28;20420;-73
2022/06/02 08:49:15;;;;;;;9.98;5.40;;;;;;;16.84;78.26;101804.03;5071984;28;20048;-71
2022/06/02 08:51:44;;;;;;;6.80;3.55;;;;;;;17.14;76.71;101804.09;5073386;28;20062;-74
2022/06/02 08:54:14;;;;;;;8.40;4.20;;;;;;;17.32;71.31;101805.50;5083221;28;20052;-73
2022/06/02 08:56:50;;;;;;;8.52;5.07;;;;;;;17.50;70.19;101805.31;5081347;28;20108;-74
2022/06/02 08:59:44;;;;;;;14.70;5.63;;;;;;;17.67;67.71;101807.09;5076893;28;20048;-72
2022/06/02 09:02:29;;;;;;;8.07;4.07;;;;;;;17.53;60.64;101805.31;5071821;28;20598;-72
2022/06/02 09:05:21;;;;;;;11.47;6.07;;;;;;;17.68;63.82;101811.50;5079114;28;20135;-75
2022/06/02 09:07:57;;;;;;;14.48;6.53;;;;;;;17.98;65.25;101814.28;5082764;28;20040;-73
2022/06/02 09:10:45;;;;;;;9.75;5.03;;;;;;;18.33;62.51;101821.38;5071569;28;20558;-72
2022/06/02 09:13:38;;;;;;;12.35;6.82;;;;;;;18.46;61.04;101820.38;5081446;28;20058;-75
2022/06/02 09:16:31;;;;;;;13.75;6.60;;;;;;;18.54;60.15;101813.47;5086724;28;20056;-73
2022/06/02 09:19:06;;;;;;;12.82;6.65;;;;;;;18.70;61.13;101810.75;5086197;28;20048;-73
2022/06/02 09:21:59;;;;;;;12.43;5.95;;;;;;;19.01;61.54;101812.22;5078704;28;20500;-72
2022/06/02 09:24:28;;;;;;;10.65;6.18;;;;;;;19.19;60.18;101812.69;5083234;28;20067;-73
2022/06/02 09:27:19;;;;;;;11.27;5.68;;;;;;;19.53;61.15;101815.25;5070049;28;20066;-73
2022/06/02 09:29:57;;;;;;;10.45;4.97;;;;;;;19.40;57.10;101819.91;5079487;28;20131;-76
2022/06/02 09:32:23;;;;;;;11.50;5.22;;;;;;;19.59;57.03;101808.69;5071136;28;20065;-72
2022/06/02 09:35:21;;;;;;;8.27;4.88;;;;;;;19.08;52.54;101806.50;5068033;28;20067;-73
2022/06/02 09:38:26;;;;;;;9.98;5.00;;;;;;;19.29;55.16;101811.72;5072843;28;20127;-72
2022/06/02 09:41:10;;;;;;;10.45;4.30;;;;;;;18.84;51.96;101807.75;5080612;28;20083;-72
2022/06/02 09:44:15;;;;;;;10.17;4.37;;;;;;;18.48;53.79;101814.34;5073186;28;20086;-72
2022/06/02 09:47:05;;;;;;;9.73;4.88;;;;;;;18.63;56.42;101812.91;5089857;28;20109;-72
2022/06/02 09:50:20;;;;;;;10.35;4.38;;;;;;;18.47;54.73;101813.56;5085679;28;20052;-75
2022/06/02 09:53:01;;;;;;;7.20;4.38;;;;;;;18.48;56.39;101826.38;5044061;28;20203;-74
2022/06/02 09:55:37;;;;;;;7.57;3.58;;;;;;;18.48;54.79;101817.94;5079528;28;20083;-77
2022/06/02 09:58:48;;;;;;;5.30;3.50;;;;;;;18.54;51.64;101824.66;5071339;28;20052;-72
2022/06/02 10:01:30;;;;;;;5.30;3.33;;;;;;;18.77;53.01;101815.47;5075572;28;20775;-72
2022/06/02 10:04:00;;;;;;;9.43;4.05;;;;;;;19.00;52.42;101816.25;5081072;28;20456;-73
2022/06/02 10:07:04;;;;;;;8.65;4.05;;;;;;;19.16;49.66;101815.53;5084856;28;20052;-76
2022/06/02 10:09:46;;;;;;;7.15;3.20;;;;;;;19.33;49.73;101811.63;5076509;28;20501;-75
2022/06/02 10:12:55;;;;;;;5.78;2.63;;;;;;;19.50;47.93;101805.66;5070813;28;20070;-75
2022/06/02 10:15:40;;;;;;;13.93;4.63;;;;;;;19.68;44.61;101813.72;5087424;28;20488;-73
2022/06/02 10:18:16;;;;;;;8.37;3.20;;;;;;;19.81;45.96;101801.38;5075776;28;20135;-73
2022/06/02 10:21:01;;;;;;;6.63;3.22;;;;;;;19.70;46.29;101798.03;5077861;28;20377;-73
2022/06/02 10:24:06;;;;;;;6.03;2.92;;;;;;;19.71;45.84;101801.63;5077345;28;20135;-75
2022/06/02 10:27:04;;;;;;;6.47;3.10;;;;;;;19.56;44.12;101800.34;5077100;28;20080;-75
2022/06/02 10:29:36;;;;;;;8.15;3.55;;;;;;;19.67;46.68;101790.47;5079780;28;20040;-73
2022/06/02 10:32:21;;;;;;;5.38;3.15;;;;;;;19.80;44.08;101794.19;5076989;28;20151;-72
2022/06/02 10:35:15;;;;;;;7.07;3.17;;;;;;;20.24;44.23;101793.59;5078447;28;20127;-72
2022/06/02 10:38:03;;;;;;;5.07;2.92;;;;;;;20.62;45.13;101799.47;5078798;28;20061;-72
2022/06/02 10:41:09;;;;;;;4.63;2.80;;;;;;;20.89;44.58;101796.41;5077457;28;20076;-75
2022/06/02 10:43:35;;;;;;;4.55;2.80;;;;;;;21.09;44.60;101797.88;5079385;28;20060;-73
2022/06/02 10:46:02;;;;;;;4.35;2.78;;;;;;;21.27;43.14;101798.19;5080340;28;20135;-72
2022/06/02 10:48:53;;;;;;;4.63;2.95;;;;;;;21.42;42.44;101795.72;5070135;28;20063;-74
2022/06/02 10:51:57;;;;;;;6.60;3.10;;;;;;;21.74;41.88;101804.09;5073550;28;20109;-72
2022/06/02 10:55:01;;;;;;;4.25;2.67;;;;;;;21.86;40.63;101798.47;5082073;28;20123;-74
2022/06/02 10:57:40;;;;;;;3.67;2.50;;;;;;;22.02;40.52;101794.75;5074694;28;20638;-72
2022/06/02 11:00:16;;;;;;;4.75;2.75;;;;;;;22.33;40.54;101792.94;5082092;28;20206;-74
2022/06/02 11:03:01;;;;;;;5.00;2.80;;;;;;;22.33;37.93;101788.09;5078796;28;20123;-73
2022/06/02 11:05:55;;;;;;;7.13;3.40;;;;;;;22.42;37.55;101788.22;5071304;28;20093;-77
2022/06/02 11:08:39;;;;;;;8.23;3.03;;;;;;;22.50;38.31;101780.31;5070604;28;20064;-75
2022/06/02 11:11:26;;;;;;;6.00;2.90;;;;;;;22.79;37.90;101792.22;5072881;28;20040;-76
2022/06/02 11:14:18;;;;;;;5.38;2.80;;;;;;;22.84;36.90;101777.53;5083889;28;20048;-75
2022/06/02 11:17:18;;;;;;;5.40;2.67;;;;;;;22.85;36.76;101783.97;5073405;28;20127;-75
2022/06/02 11:20:30;;;;;;;5.82;2.50;;;;;;;23.06;35.96;101781.19;5075624;28;20070;-74
2022/06/02 11:23:34;;;;;;;3.08;2.20;;;;;;;23.02;34.14;101772.06;5082176;28;20158;-74
2022/06/02 11:26:38;;;;;;;4.10;2.47;;;;;;;22.80;35.61;101771.22;5083161;28;20131;-76
2022/06/02 11:29:43;;;;;;;5.05;2.70;;;;;;;23.20;34.86;101755.25;5081751;28;20127;-75
2022/06/02 11:32:46;;;;;;;4.63;3.10;;;;;;;23.49;36.69;101755.03;5066352;28;20052;-75
2022/06/02 11:35:33;;;;;;;7.18;3.40;;;;;;;23.88;38.21;101755.09;5066941;28;20087;-74
2022/06/02 11:38:18;;;;;;;24.70;5.80;;;;;;;24.39;37.83;101749.78;5073920;28;20071;-73
2022/06/02 11:41:13;;;;;;;6.38;3.30;;;;;;;24.99;35.43;101745.16;5071623;28;20416;-74
2022/06/02 11:43:59;;;;;;;7.70;3.53;;;;;;;25.64;36.89;101744.66;5083013;28;20433;-73
2022/06/02 11:46:32;;;;;;;5.22;3.28;;;;;;;25.94;35.76;101749.25;5070440;28;20049;-73
2022/06/02 11:49:27;;;;;;;6.13;3.10;;;;;;;26.27;32.47;101750.06;5075939;28;20600;-73
2022/06/02 11:52:09;;;;;;;7.47;3.50;;;;;;;26.59;31.57;101752.84;5074391;28;20701;-72
2022/06/02 11:55:07;;;;;;;8.27;4.10;;;;;;;26.49;31.07;101740.00;5080351;28;20040;-73
2022/06/02 11:58:02;;;;;;;5.85;4.10;;;;;;;25.62;31.84;101742.28;5028798;28;20083;-75
2022/06/02 12:00:53;;;;;;;7.65;3.90;;;;;;;25.51;32.15;101738.38;5076408;28;20645;-72
2022/06/02 12:03:56;;;;;;;5.97;3.47;;;;;;;26.05;31.65;101738.97;5073857;28;20055;-71
2022/06/02 12:06:44;;;;;;;5.60;3.47;;;;;;;26.33;30.93;101736.78;5077145;28;20184;-71
2022/06/02 12:09:36;;;;;;;5.80;3.45;;;;;;;26.98;31.30;101742.34;5076682;28;20579;-72
2022/06/02 12:12:41;;;;;;;8.05;4.40;;;;;;;28.05;29.40;101733.19;5077411;28;20135;-72
2022/06/02 12:15:26;;;;;;;5.38;3.30;;;;;;;28.79;28.71;101730.34;5050280;28;20489;-72
2022/06/02 12:18:12;;;;;;;7.65;3.30;;;;;;;29.17;27.82;101726.41;5080396;28;20051;-72
2022/06/02 12:20:47;;;;;;;;;;;;;;;29.54;26.38;101728.09;5078370;28;20636;-74
2022/06/02 12:23:32;;;;;;;10.38;3.35;;;;;;;29.01;28.96;101724.94;5071286;28;20137;-71
2022/06/02 12:26:11;;;;;;;3.95;2.50;;;;;;;28.01;28.15;101726.91;5073317;28;20131;-72
2022/06/02 12:28:44;;;;;;;5.00;2.67;;;;;;;27.35;28.92;101730.19;5076544;28;20090;-75
2022/06/02 12:31:35;;;;;;;6.40;3.20;;;;;;;26.55;28.37;101726.72;5068149;28;20155;-72
2022/06/02 12:34:29;;;;;;;6.13;2.70;;;;;;;25.31;29.17;101723.94;5079643;28;20117;-73
2022/06/02 12:37:25;;;;;;;4.78;3.00;;;;;;;24.67;29.70;101723.16;5078770;28;20040;-71
2022/06/02 12:40:10;;;;;;;5.68;3.15;;;;;;;24.64;31.26;101719.19;5068977;28;20123;-73
2022/06/02 12:43:00;;;;;;;5.28;2.97;;;;;;;24.51;30.63;101724.22;5068248;28;20521;-73
2022/06/02 12:45:49;;;;;;;6.18;2.95;;;;;;;25.13;32.11;101713.38;5074547;28;20057;-72
2022/06/02 12:48:49;;;;;;;5.22;3.00;;;;;;;25.81;32.08;101711.81;5077921;28;20047;-74
2022/06/02 12:51:52;;;;;;;7.47;3.47;;;;;;;26.69;30.64;101714.66;5076843;28;20709;-73
2022/06/02 12:54:22;;;;;;;5.95;3.08;;;;;;;27.64;29.38;101715.19;5073866;28;20051;-73